createdAt,value
2019-02-08T00:02:16.737Z,8.02
2019-02-08T00:08:22.722Z,8.06
2019-02-08T00:14:28.703Z,8.03
2019-02-08T00:20:34.744Z,8.05
2019-02-08T00:26:40.538Z,8.03
2019-02-08T00:32:46.772Z,8.03
2019-02-08T00:38:52.752Z,7.99
2019-02-08T00:44:58.648Z,8.02
2019-02-08T00:51:04.519Z,8.00
2019-02-08T00:57:10.372Z,8.00
2019-02-08T01:03:16.257Z,7.97
2019-02-08T01:09:22.025Z,8.00
2019-02-08T01:15:29.349Z,7.97
2019-02-08T01:21:35.270Z,7.96
2019-02-08T01:27:41.047Z,7.89
2019-02-08T01:33:46.930Z,7.84
2019-02-08T01:39:52.910Z,7.81
2019-02-08T01:45:58.738Z,7.66
2019-02-08T01:52:04.542Z,7.47
2019-02-08T01:58:10.384Z,7.43
2019-02-08T02:04:16.242Z,7.41
2019-02-08T02:10:29.347Z,7.28
2019-02-08T02:16:35.421Z,7.13
2019-02-08T02:22:41.397Z,7.11
2019-02-08T02:28:47.222Z,7.22
2019-02-08T02:34:53.217Z,7.37
2019-02-08T02:40:59.157Z,7.40
2019-02-08T02:47:04.917Z,7.47
2019-02-08T02:53:11.213Z,7.43
2019-02-08T02:59:19.159Z,7.42
2019-02-08T03:05:25.189Z,7.39
2019-02-08T03:11:30.983Z,7.35
2019-02-08T03:17:36.865Z,7.36
2019-02-08T03:23:42.954Z,7.33
2019-02-08T03:29:49.253Z,7.36
2019-02-08T03:35:56.195Z,7.39
2019-02-08T03:42:02.519Z,7.44
2019-02-08T03:48:09.019Z,7.48
2019-02-08T03:54:21.004Z,7.53
2019-02-08T04:00:34.955Z,7.57
2019-02-08T04:06:41.197Z,7.60
2019-02-08T04:12:47.009Z,7.64
2019-02-08T04:18:54.756Z,7.66
2019-02-08T04:25:00.802Z,7.65
2019-02-08T04:31:07.064Z,7.67
2019-02-08T04:37:13.261Z,7.66
2019-02-08T04:43:19.278Z,7.72
2019-02-08T04:49:25.196Z,7.77
2019-02-08T04:55:31.241Z,7.75
2019-02-08T05:01:37.097Z,7.75
2019-02-08T05:07:42.987Z,7.75
2019-02-08T05:13:49.423Z,7.67
2019-02-08T05:19:55.305Z,7.70
2019-02-08T05:26:01.285Z,7.66
2019-02-08T05:32:07.282Z,7.67
2019-02-08T05:38:13.429Z,7.66
2019-02-08T05:44:19.461Z,7.63
2019-02-08T05:50:27.251Z,7.64
2019-02-08T05:56:33.093Z,7.68
2019-02-08T06:02:39.089Z,7.74
2019-02-08T06:08:45.348Z,7.73
2019-02-08T06:14:51.165Z,7.77
2019-02-08T06:20:57.066Z,7.77
2019-02-08T06:27:02.932Z,7.79
2019-02-08T06:33:09.488Z,7.83
2019-02-08T06:39:15.340Z,7.87
2019-02-08T06:45:23.305Z,7.93
2019-02-08T06:51:29.384Z,7.94
2019-02-08T06:57:43.929Z,7.96
2019-02-08T07:04:22.495Z,7.94
2019-02-08T07:10:44.422Z,7.98
2019-02-08T07:17:08.185Z,8.03
2019-02-08T07:23:31.656Z,8.02
2019-02-08T07:29:53.313Z,8.04
2019-02-08T07:36:10.078Z,8.09
2019-02-08T07:42:37.658Z,8.19
2019-02-08T07:49:04.348Z,8.28
2019-02-08T07:55:42.248Z,8.30
2019-02-08T08:01:59.438Z,8.29
2019-02-08T08:08:18.415Z,8.34
2019-02-08T08:14:46.614Z,8.38
2019-02-08T08:21:11.577Z,8.44
2019-02-08T08:27:32.215Z,8.48
2019-02-08T08:33:49.723Z,8.54
2019-02-08T08:40:57.268Z,8.59
2019-02-08T08:48:10.989Z,8.63
2019-02-08T08:55:19.769Z,8.70
2019-02-08T09:02:20.777Z,8.77
2019-02-08T09:09:33.415Z,8.81
2019-02-08T09:16:33.076Z,8.83
2019-02-08T09:23:27.627Z,8.92
2019-02-08T09:30:15.099Z,8.98
2019-02-08T09:37:35.345Z,9.00
2019-02-08T09:44:46.277Z,9.11
2019-02-08T09:51:36.444Z,9.26
2019-02-08T09:58:43.136Z,9.34
2019-02-08T10:06:00.188Z,9.36
2019-02-08T10:13:22.776Z,9.46
2019-02-08T10:20:40.424Z,9.55
2019-02-08T10:27:42.361Z,9.58
2019-02-08T10:35:02.572Z,9.63
2019-02-08T10:42:20.421Z,9.65
2019-02-08T10:49:30.004Z,9.63
2019-02-08T10:56:59.310Z,9.68
2019-02-08T11:04:07.396Z,9.74
2019-02-08T11:11:19.315Z,9.81
2019-02-08T11:18:24.054Z,9.90
2019-02-08T11:24:30.302Z,10.05
2019-02-08T11:30:36.146Z,10.09
2019-02-08T11:36:42.268Z,10.10
2019-02-08T11:42:48.157Z,10.09
2019-02-08T11:48:54.134Z,10.16
2019-02-08T11:54:59.975Z,10.21
2019-02-08T12:01:06.514Z,10.19
2019-02-08T12:07:12.755Z,10.12
2019-02-08T12:13:19.062Z,10.21
2019-02-08T12:19:26.142Z,10.20
2019-02-08T12:25:32.158Z,10.26
2019-02-08T12:31:37.949Z,10.31
2019-02-08T12:37:43.836Z,10.29
2019-02-08T12:43:49.643Z,10.28
2019-02-08T12:49:55.557Z,10.29
2019-02-08T12:56:01.399Z,10.24
2019-02-08T13:02:07.580Z,10.19
2019-02-08T13:08:13.615Z,10.31
2019-02-08T13:14:19.687Z,10.45
2019-02-08T13:20:25.958Z,10.50
2019-02-08T13:26:34.666Z,10.54
2019-02-08T13:32:40.821Z,10.47
2019-02-08T13:38:46.595Z,10.48
2019-02-08T13:44:52.497Z,10.46
2019-02-08T13:50:58.435Z,10.50
2019-02-08T13:57:14.209Z,10.51
2019-02-08T14:03:20.207Z,10.51
2019-02-08T14:09:26.073Z,10.50
2019-02-08T14:15:32.115Z,10.41
2019-02-08T14:21:38.018Z,10.31
2019-02-08T14:27:44.289Z,10.24
2019-02-08T14:33:50.183Z,10.25
2019-02-08T14:39:56.116Z,10.23
2019-02-08T14:46:02.203Z,10.16
2019-02-08T14:52:08.221Z,10.13
2019-02-08T14:58:14.317Z,10.12
2019-02-08T15:04:20.024Z,10.07
2019-02-08T15:10:32.307Z,10.03
2019-02-08T15:16:38.514Z,10.05
2019-02-08T15:22:44.484Z,10.04
2019-02-08T15:28:50.450Z,10.02
2019-02-08T15:34:56.251Z,10.05
2019-02-08T15:41:02.225Z,10.01
2019-02-08T15:47:08.363Z,10.00
2019-02-08T15:53:15.728Z,10.00
2019-02-08T15:59:21.527Z,10.00
2019-02-08T16:05:28.043Z,9.98
2019-02-08T16:11:34.183Z,9.96
2019-02-08T16:17:40.329Z,10.02
2019-02-08T16:23:46.358Z,10.06
2019-02-08T16:29:52.474Z,10.09
2019-02-08T16:35:58.442Z,10.08
2019-02-08T16:42:04.507Z,10.06
2019-02-08T16:48:11.288Z,10.09
2019-02-08T16:54:18.093Z,10.09
2019-02-08T17:00:28.120Z,10.08
2019-02-08T17:06:34.247Z,10.11
2019-02-08T17:12:40.429Z,10.10
2019-02-08T17:18:46.649Z,10.11
2019-02-08T17:24:52.741Z,10.08
2019-02-08T17:30:58.697Z,10.09
2019-02-08T17:37:04.550Z,10.09
2019-02-08T17:43:10.400Z,10.08
2019-02-08T17:49:16.334Z,10.06
2019-02-08T17:55:23.991Z,10.07
2019-02-08T18:01:30.029Z,10.07
2019-02-08T18:07:37.408Z,10.07
2019-02-08T18:13:43.414Z,10.09
2019-02-08T18:19:49.372Z,10.10
2019-02-08T18:25:55.874Z,10.10
2019-02-08T18:32:01.855Z,10.10
2019-02-08T18:38:08.129Z,10.11
2019-02-08T18:44:13.961Z,10.14
2019-02-08T18:50:26.340Z,10.14
2019-02-08T18:56:32.469Z,10.12
2019-02-08T19:02:38.483Z,10.12
2019-02-08T19:08:44.239Z,10.13
2019-02-08T19:14:50.506Z,10.14
2019-02-08T19:20:56.623Z,10.19
2019-02-08T19:27:02.620Z,10.15
2019-02-08T19:33:08.763Z,10.14
2019-02-08T19:39:14.537Z,10.09
2019-02-08T19:45:23.061Z,10.14
2019-02-08T19:51:29.190Z,10.16
2019-02-08T19:57:35.049Z,10.19
2019-02-08T20:03:40.810Z,10.19
2019-02-08T20:09:46.612Z,10.20
2019-02-08T20:15:52.452Z,10.16
2019-02-08T20:21:58.365Z,10.16
2019-02-08T20:28:04.397Z,10.14
2019-02-08T20:34:10.288Z,10.11
2019-02-08T20:40:19.975Z,10.08
2019-02-08T20:46:25.873Z,10.07
2019-02-08T20:52:31.844Z,10.07
2019-02-08T20:58:38.096Z,10.04
2019-02-08T21:04:43.950Z,10.00
2019-02-08T21:10:50.076Z,9.96
2019-02-08T21:16:55.922Z,10.02
2019-02-08T21:23:01.913Z,10.03
2019-02-08T21:29:07.793Z,10.03
2019-02-08T21:35:14.237Z,10.02
2019-02-08T21:41:20.047Z,10.00
2019-02-08T21:47:25.767Z,10.05
2019-02-08T21:53:31.594Z,9.99
2019-02-08T21:59:37.554Z,10.01
2019-02-08T22:05:53.520Z,9.99
2019-02-08T22:11:59.338Z,10.02
2019-02-08T22:18:05.885Z,10.01
2019-02-08T22:24:11.756Z,10.00
2019-02-08T22:30:20.841Z,9.98
2019-02-08T22:36:26.649Z,9.91
2019-02-08T22:42:32.404Z,9.79
2019-02-08T22:48:38.260Z,9.77
2019-02-08T22:54:44.129Z,9.69
2019-02-08T23:01:28.811Z,9.67
2019-02-08T23:07:34.570Z,9.64
2019-02-08T23:13:40.571Z,9.50
2019-02-08T23:19:46.665Z,9.48
2019-02-08T23:25:52.727Z,9.41
2019-02-08T23:31:58.786Z,9.36
2019-02-08T23:38:05.194Z,9.29
2019-02-08T23:44:11.207Z,9.29
2019-02-08T23:50:17.433Z,9.21
2019-02-08T23:56:23.262Z,9.09
